KAL690 VDTI-RKSI
Flight info
| Callsign | KAL690 |
|---|---|
| Flight time | 4h 38m |
| Altitude | 35000 |
| Route | TIA N639 VIBUN R575 PAPRA A1 IKELA DCT MORTU DCT NOBAD DCT ENVAR M750 ANLOT B1 APU DCT DRAKE Q11 WP900 L4 LIPLO Y741 ATOTI Y722 ATASO/N0437F310 Y722 OLMEN |
| Aircraft | B738/M-SDE2FGHIM3RWXY/LB1 |
Departure
| Time | 2026-05-04 12:51 |
|---|---|
| Airport | Techo International Airport (VDTI) |
Arrival
| Time | 2026-05-04 17:29 |
|---|---|
| Airport | Incheon International Airport (RKSI) |
| Time | Latitude | Longitude | Altitude | Speed | Heading |
|---|---|---|---|---|---|
| 2026-05-04 12:32 | 11.35913 | 104.92909 | 9 ft | 0 kts | 157° |
| 2026-05-04 12:38 | 11.35927 | 104.92902 | 10 ft | 2 kts | 157° |
| 2026-05-04 12:38 | 11.35941 | 104.92896 | 9 ft | 2 kts | 156° |
| 2026-05-04 12:38 | 11.35955 | 104.92890 | 9 ft | 2 kts | 157° |
| 2026-05-04 12:39 | 11.35969 | 104.92885 | 9 ft | 2 kts | 156° |
| 2026-05-04 12:39 | 11.35982 | 104.92879 | 9 ft | 2 kts | 157° |
| 2026-05-04 12:39 | 11.35994 | 104.92873 | 9 ft | 0 kts | 157° |
| 2026-05-04 12:39 | 11.36004 | 104.92867 | 9 ft | 2 kts | 126° |
| 2026-05-04 12:40 | 11.36010 | 104.92853 | 9 ft | 1 kts | 90° |
| 2026-05-04 12:40 | 11.36009 | 104.92847 | 9 ft | 1 kts | 81° |
| 2026-05-04 12:40 | 11.36009 | 104.92844 | 9 ft | 0 kts | 83° |
| 2026-05-04 12:43 | 11.36009 | 104.92846 | 9 ft | 0 kts | 83° |
| 2026-05-04 12:43 | 11.36010 | 104.92859 | 9 ft | 2 kts | 85° |
| 2026-05-04 12:43 | 11.36013 | 104.92885 | 9 ft | 4 kts | 85° |
| 2026-05-04 12:43 | 11.36016 | 104.92928 | 9 ft | 7 kts | 84° |
| 2026-05-04 12:44 | 11.36023 | 104.92985 | 9 ft | 8 kts | 76° |
| 2026-05-04 12:44 | 11.36050 | 104.93043 | 9 ft | 9 kts | 52° |
| 2026-05-04 12:44 | 11.36106 | 104.93082 | 9 ft | 10 kts | 22° |
| 2026-05-04 12:44 | 11.36177 | 104.93098 | 9 ft | 10 kts | 11° |
| 2026-05-04 12:45 | 11.36250 | 104.93111 | 9 ft | 9 kts | 10° |
| 2026-05-04 12:45 | 11.36308 | 104.93102 | 9 ft | 8 kts | 320° |
| 2026-05-04 12:45 | 11.36347 | 104.93067 | 9 ft | 6 kts | 315° |
| 2026-05-04 12:45 | 11.36382 | 104.93034 | 9 ft | 7 kts | 326° |
| 2026-05-04 12:46 | 11.36430 | 104.93037 | 9 ft | 7 kts | 35° |
| 2026-05-04 12:46 | 11.36471 | 104.93079 | 9 ft | 8 kts | 47° |
| 2026-05-04 12:46 | 11.36513 | 104.93127 | 9 ft | 9 kts | 47° |
| 2026-05-04 12:46 | 11.36559 | 104.93177 | 9 ft | 10 kts | 47° |
| 2026-05-04 12:47 | 11.36611 | 104.93234 | 9 ft | 11 kts | 47° |
| 2026-05-04 12:47 | 11.36669 | 104.93298 | 9 ft | 13 kts | 47° |
| 2026-05-04 12:47 | 11.36738 | 104.93374 | 9 ft | 15 kts | 47° |
| 2026-05-04 12:47 | 11.36820 | 104.93465 | 9 ft | 18 kts | 47° |
| 2026-05-04 12:48 | 11.36908 | 104.93562 | 9 ft | 17 kts | 47° |
| 2026-05-04 12:48 | 11.36980 | 104.93642 | 9 ft | 10 kts | 49° |
| 2026-05-04 12:48 | 11.37017 | 104.93647 | 9 ft | 4 kts | 335° |
| 2026-05-04 12:48 | 11.37045 | 104.93626 | 9 ft | 5 kts | 319° |
| 2026-05-04 12:49 | 11.37073 | 104.93601 | 9 ft | 5 kts | 318° |
| 2026-05-04 12:49 | 11.37104 | 104.93572 | 9 ft | 6 kts | 317° |
| 2026-05-04 12:49 | 11.37139 | 104.93540 | 9 ft | 7 kts | 317° |
| 2026-05-04 12:49 | 11.37176 | 104.93505 | 9 ft | 6 kts | 317° |
| 2026-05-04 12:50 | 11.37204 | 104.93478 | 9 ft | 4 kts | 311° |
| 2026-05-04 12:50 | 11.37206 | 104.93457 | 9 ft | 2 kts | 242° |
| 2026-05-04 12:50 | 11.37200 | 104.93449 | 9 ft | 0 kts | 227° |
| 2026-05-04 12:50 | 11.37193 | 104.93441 | 9 ft | 7 kts | 227° |
| 2026-05-04 12:51 | 11.36988 | 104.93215 | 9 ft | 78 kts | 227° |
| 2026-05-04 12:51 | 11.36462 | 104.92635 | 9 ft | 140 kts | 227° |
| 2026-05-04 12:51 | 11.35682 | 104.91773 | 74 ft | 183 kts | 227° |
| 2026-05-04 12:51 | 11.34824 | 104.90797 | 756 ft | 184 kts | 228° |
| 2026-05-04 12:52 | 11.33957 | 104.89813 | 1391 ft | 190 kts | 226° |
| 2026-05-04 12:52 | 11.33066 | 104.88843 | 2005 ft | 189 kts | 225° |
| 2026-05-04 12:52 | 11.32145 | 104.87846 | 2475 ft | 194 kts | 225° |
| 2026-05-04 12:52 | 11.31225 | 104.86839 | 2965 ft | 196 kts | 226° |
| 2026-05-04 12:53 | 11.30273 | 104.85793 | 3386 ft | 205 kts | 225° |
| 2026-05-04 12:53 | 11.29273 | 104.84671 | 3642 ft | 224 kts | 230° |
| 2026-05-04 12:53 | 11.28496 | 104.83235 | 3998 ft | 240 kts | 256° |
| 2026-05-04 12:53 | 11.28490 | 104.81468 | 4265 ft | 260 kts | 287° |
| 2026-05-04 12:54 | 11.29312 | 104.79811 | 4674 ft | 271 kts | 309° |
| 2026-05-04 12:54 | 11.30649 | 104.78385 | 5082 ft | 283 kts | 319° |
| 2026-05-04 12:54 | 11.32125 | 104.77045 | 5679 ft | 287 kts | 320° |
| 2026-05-04 12:54 | 11.33646 | 104.75684 | 6319 ft | 291 kts | 320° |
| 2026-05-04 12:55 | 11.35149 | 104.74316 | 6977 ft | 293 kts | 320° |
| 2026-05-04 12:55 | 11.36683 | 104.72899 | 7614 ft | 296 kts | 320° |
| 2026-05-04 12:55 | 11.38194 | 104.71492 | 8228 ft | 299 kts | 320° |
| 2026-05-04 12:55 | 11.39894 | 104.70241 | 8829 ft | 298 kts | 338° |
| 2026-05-04 12:56 | 11.41858 | 104.69645 | 9474 ft | 293 kts | 356° |
| 2026-05-04 12:56 | 11.43907 | 104.69585 | 10048 ft | 293 kts | 8° |
| 2026-05-04 12:56 | 11.45934 | 104.69895 | 10460 ft | 301 kts | 16° |
| 2026-05-04 12:56 | 11.47931 | 104.70656 | 10700 ft | 312 kts | 32° |
| 2026-05-04 12:57 | 11.49690 | 104.72036 | 10950 ft | 324 kts | 46° |
| 2026-05-04 12:57 | 11.51275 | 104.73721 | 11156 ft | 338 kts | 49° |
| 2026-05-04 12:57 | 11.52908 | 104.75554 | 11393 ft | 352 kts | 49° |
| 2026-05-04 12:57 | 11.54570 | 104.77429 | 11739 ft | 361 kts | 49° |
| 2026-05-04 12:58 | 11.56273 | 104.79340 | 12163 ft | 367 kts | 49° |
| 2026-05-04 12:58 | 11.58025 | 104.81290 | 12638 ft | 371 kts | 49° |
| 2026-05-04 12:58 | 11.59790 | 104.83245 | 13150 ft | 374 kts | 48° |
| 2026-05-04 12:58 | 11.61556 | 104.85197 | 13635 ft | 377 kts | 48° |
| 2026-05-04 12:59 | 11.63355 | 104.87183 | 14106 ft | 381 kts | 48° |
| 2026-05-04 12:59 | 11.65148 | 104.89163 | 14578 ft | 384 kts | 48° |
| 2026-05-04 12:59 | 11.66989 | 104.91196 | 15096 ft | 386 kts | 48° |
| 2026-05-04 12:59 | 11.68813 | 104.93211 | 15533 ft | 389 kts | 48° |
| 2026-05-04 13:00 | 11.70647 | 104.95236 | 16039 ft | 390 kts | 48° |
| 2026-05-04 13:00 | 11.72516 | 104.97301 | 16446 ft | 394 kts | 48° |
| 2026-05-04 13:00 | 11.74392 | 104.99373 | 16837 ft | 398 kts | 48° |
| 2026-05-04 13:00 | 11.76264 | 105.01441 | 17319 ft | 399 kts | 48° |
| 2026-05-04 13:01 | 11.78174 | 105.03552 | 17708 ft | 403 kts | 48° |
| 2026-05-04 13:01 | 11.80090 | 105.05634 | 18139 ft | 405 kts | 46° |
| 2026-05-04 13:01 | 11.82247 | 105.07562 | 18470 ft | 410 kts | 36° |
| 2026-05-04 13:01 | 11.84773 | 105.08881 | 18849 ft | 414 kts | 19° |
| 2026-05-04 13:02 | 11.87597 | 105.09531 | 19213 ft | 418 kts | 7° |
| 2026-05-04 13:02 | 11.90521 | 105.09707 | 19563 ft | 422 kts | 1° |
| 2026-05-04 13:02 | 11.93513 | 105.09644 | 19938 ft | 424 kts | 358° |
| 2026-05-04 13:02 | 11.96464 | 105.09483 | 20320 ft | 426 kts | 357° |
| 2026-05-04 13:03 | 11.99461 | 105.09290 | 20636 ft | 430 kts | 356° |
| 2026-05-04 13:03 | 12.02431 | 105.09100 | 21009 ft | 432 kts | 357° |
| 2026-05-04 13:03 | 12.05472 | 105.08923 | 21363 ft | 434 kts | 357° |
| 2026-05-04 13:03 | 12.08491 | 105.08764 | 21676 ft | 437 kts | 358° |
| 2026-05-04 13:04 | 12.11575 | 105.08616 | 22062 ft | 438 kts | 358° |
| 2026-05-04 13:04 | 12.14616 | 105.08501 | 22369 ft | 440 kts | 359° |
| 2026-05-04 13:04 | 12.17702 | 105.08515 | 22680 ft | 442 kts | 3° |
| 2026-05-04 13:04 | 12.20814 | 105.08820 | 23018 ft | 444 kts | 8° |
| 2026-05-04 13:05 | 12.23869 | 105.09334 | 23315 ft | 446 kts | 11° |
| 2026-05-04 13:05 | 12.26929 | 105.09963 | 23635 ft | 448 kts | 12° |
| 2026-05-04 13:05 | 12.30001 | 105.10645 | 23950 ft | 450 kts | 13° |
| 2026-05-04 13:05 | 12.33069 | 105.11344 | 24265 ft | 452 kts | 13° |
| 2026-05-04 13:06 | 12.36163 | 105.12048 | 24556 ft | 454 kts | 13° |
| 2026-05-04 13:06 | 12.39260 | 105.12746 | 24862 ft | 456 kts | 13° |
| 2026-05-04 13:06 | 12.42353 | 105.13436 | 25170 ft | 457 kts | 13° |
| 2026-05-04 13:06 | 12.45482 | 105.14127 | 25445 ft | 459 kts | 13° |
| 2026-05-04 13:07 | 12.48626 | 105.14816 | 25715 ft | 462 kts | 13° |
| 2026-05-04 13:07 | 12.51776 | 105.15501 | 26023 ft | 463 kts | 12° |
| 2026-05-04 13:07 | 12.54986 | 105.16197 | 26158 ft | 468 kts | 12° |
| 2026-05-04 13:07 | 12.58188 | 105.16889 | 26448 ft | 470 kts | 12° |
| 2026-05-04 13:08 | 12.61401 | 105.17582 | 26619 ft | 473 kts | 12° |
| 2026-05-04 13:08 | 12.64623 | 105.18276 | 26997 ft | 472 kts | 11° |
| 2026-05-04 13:08 | 12.67867 | 105.18975 | 27258 ft | 474 kts | 11° |
| 2026-05-04 13:08 | 12.71117 | 105.19674 | 27483 ft | 476 kts | 11° |
| 2026-05-04 13:09 | 12.74382 | 105.20377 | 27776 ft | 477 kts | 11° |
| 2026-05-04 13:09 | 12.77653 | 105.21081 | 27966 ft | 480 kts | 11° |
| 2026-05-04 13:09 | 12.80936 | 105.21788 | 28212 ft | 481 kts | 11° |
| 2026-05-04 13:09 | 12.84222 | 105.22496 | 28530 ft | 480 kts | 11° |
| 2026-05-04 13:10 | 12.87521 | 105.23207 | 28989 ft | 477 kts | 11° |
| 2026-05-04 13:10 | 12.90776 | 105.23909 | 29343 ft | 476 kts | 11° |
| 2026-05-04 13:10 | 12.94050 | 105.24616 | 29659 ft | 475 kts | 11° |
| 2026-05-04 13:10 | 12.97269 | 105.25310 | 30004 ft | 474 kts | 11° |
| 2026-05-04 13:11 | 13.00514 | 105.26010 | 30334 ft | 473 kts | 11° |
| 2026-05-04 13:11 | 13.03748 | 105.26710 | 30646 ft | 472 kts | 11° |
| 2026-05-04 13:11 | 13.06951 | 105.27402 | 30955 ft | 471 kts | 11° |
| 2026-05-04 13:11 | 13.10178 | 105.28098 | 31297 ft | 469 kts | 11° |
| 2026-05-04 13:12 | 13.13402 | 105.28794 | 31626 ft | 468 kts | 10° |
| 2026-05-04 13:12 | 13.16597 | 105.29484 | 31929 ft | 466 kts | 10° |
| 2026-05-04 13:12 | 13.19767 | 105.30169 | 32206 ft | 465 kts | 10° |
| 2026-05-04 13:12 | 13.22947 | 105.30856 | 32498 ft | 464 kts | 10° |
| 2026-05-04 13:13 | 13.26133 | 105.31545 | 32768 ft | 464 kts | 10° |
| 2026-05-04 13:13 | 13.29299 | 105.32231 | 33005 ft | 464 kts | 10° |
| 2026-05-04 13:13 | 13.32484 | 105.32922 | 33250 ft | 464 kts | 10° |
| 2026-05-04 13:13 | 13.35628 | 105.33602 | 33483 ft | 463 kts | 10° |
| 2026-05-04 13:14 | 13.38819 | 105.34293 | 33743 ft | 463 kts | 10° |
| 2026-05-04 13:14 | 13.41980 | 105.34977 | 33986 ft | 462 kts | 10° |
| 2026-05-04 13:14 | 13.45124 | 105.35657 | 34215 ft | 462 kts | 9° |
| 2026-05-04 13:14 | 13.48315 | 105.36348 | 34458 ft | 461 kts | 10° |
| 2026-05-04 13:15 | 13.51444 | 105.37026 | 34690 ft | 460 kts | 9° |
| 2026-05-04 13:15 | 13.54589 | 105.37707 | 34869 ft | 460 kts | 9° |
| 2026-05-04 13:15 | 13.57743 | 105.38390 | 34871 ft | 462 kts | 9° |
| 2026-05-04 13:16 | 13.64067 | 105.39762 | 34878 ft | 460 kts | 9° |
| 2026-05-04 13:16 | 13.70399 | 105.41135 | 34872 ft | 461 kts | 9° |
| 2026-05-04 13:17 | 13.76661 | 105.42625 | 34865 ft | 461 kts | 15° |
| 2026-05-04 13:17 | 13.82470 | 105.45573 | 34873 ft | 468 kts | 33° |
| 2026-05-04 13:18 | 13.87633 | 105.49738 | 34868 ft | 471 kts | 38° |
| 2026-05-04 13:18 | 13.92610 | 105.54145 | 34866 ft | 471 kts | 39° |
| 2026-05-04 13:19 | 13.97590 | 105.58599 | 34864 ft | 472 kts | 38° |
| 2026-05-04 13:19 | 14.02571 | 105.63013 | 34865 ft | 472 kts | 38° |
| 2026-05-04 13:20 | 14.07576 | 105.67412 | 34863 ft | 472 kts | 38° |
| 2026-05-04 13:20 | 14.12603 | 105.71821 | 34863 ft | 472 kts | 38° |
| 2026-05-04 13:21 | 14.17639 | 105.76263 | 34863 ft | 473 kts | 38° |
| 2026-05-04 13:21 | 14.22639 | 105.80685 | 34867 ft | 474 kts | 38° |
| 2026-05-04 13:22 | 14.27673 | 105.85139 | 34871 ft | 473 kts | 38° |
| 2026-05-04 13:22 | 14.32675 | 105.89564 | 34877 ft | 473 kts | 38° |
| 2026-05-04 13:23 | 14.37688 | 105.93999 | 34886 ft | 472 kts | 38° |
| 2026-05-04 13:23 | 14.42678 | 105.98415 | 34903 ft | 472 kts | 38° |
| 2026-05-04 13:24 | 14.47718 | 106.02877 | 34909 ft | 473 kts | 38° |
| 2026-05-04 13:24 | 14.52706 | 106.07296 | 34911 ft | 473 kts | 38° |
| 2026-05-04 13:25 | 14.60270 | 106.14002 | 34909 ft | 474 kts | 38° |
| 2026-05-04 13:25 | 14.65260 | 106.18429 | 34908 ft | 472 kts | 38° |
| 2026-05-04 13:26 | 14.70251 | 106.22861 | 34911 ft | 472 kts | 38° |
| 2026-05-04 13:26 | 14.75252 | 106.27304 | 34916 ft | 472 kts | 38° |
| 2026-05-04 13:27 | 14.80237 | 106.31735 | 34942 ft | 472 kts | 38° |
| 2026-05-04 13:27 | 14.85255 | 106.36198 | 34967 ft | 473 kts | 38° |
| 2026-05-04 13:28 | 14.90267 | 106.40663 | 34986 ft | 472 kts | 38° |
| 2026-05-04 13:28 | 14.95242 | 106.45109 | 34995 ft | 472 kts | 38° |
| 2026-05-04 13:29 | 15.00219 | 106.49560 | 35008 ft | 472 kts | 38° |
| 2026-05-04 13:29 | 15.05190 | 106.54009 | 35023 ft | 472 kts | 38° |
| 2026-05-04 13:30 | 15.10190 | 106.58487 | 35027 ft | 472 kts | 38° |
| 2026-05-04 13:30 | 15.15166 | 106.62946 | 35020 ft | 472 kts | 38° |
| 2026-05-04 13:31 | 15.20181 | 106.67440 | 35008 ft | 472 kts | 38° |
| 2026-05-04 13:31 | 15.25183 | 106.71926 | 34974 ft | 472 kts | 38° |
| 2026-05-04 13:32 | 15.30152 | 106.76387 | 34954 ft | 472 kts | 38° |
| 2026-05-04 13:32 | 15.35138 | 106.80865 | 34992 ft | 472 kts | 38° |
| 2026-05-04 13:33 | 15.40108 | 106.85331 | 35005 ft | 472 kts | 38° |
| 2026-05-04 13:33 | 15.45057 | 106.89780 | 35050 ft | 471 kts | 39° |
| 2026-05-04 13:34 | 15.50044 | 106.94269 | 35062 ft | 471 kts | 39° |
| 2026-05-04 13:34 | 15.55007 | 106.98737 | 35094 ft | 472 kts | 38° |
| 2026-05-04 13:35 | 15.62456 | 107.05450 | 35117 ft | 472 kts | 38° |
| 2026-05-04 13:36 | 15.67425 | 107.09933 | 35123 ft | 472 kts | 38° |
| 2026-05-04 13:36 | 15.72410 | 107.14445 | 35128 ft | 473 kts | 40° |
| 2026-05-04 13:37 | 15.76581 | 107.19707 | 35127 ft | 477 kts | 59° |
| 2026-05-04 13:37 | 15.79089 | 107.26105 | 35129 ft | 480 kts | 71° |
| 2026-05-04 13:38 | 15.81044 | 107.32752 | 35116 ft | 479 kts | 73° |
| 2026-05-04 13:38 | 15.82877 | 107.39382 | 35106 ft | 480 kts | 73° |
| 2026-05-04 13:39 | 15.84727 | 107.46046 | 35093 ft | 478 kts | 73° |
| 2026-05-04 13:39 | 15.86593 | 107.52672 | 35083 ft | 479 kts | 72° |
| 2026-05-04 13:40 | 15.88494 | 107.59358 | 35080 ft | 479 kts | 72° |
| 2026-05-04 13:40 | 15.90387 | 107.65988 | 35074 ft | 478 kts | 73° |
| 2026-05-04 13:41 | 15.92230 | 107.72601 | 35070 ft | 479 kts | 73° |
| 2026-05-04 13:41 | 15.94043 | 107.79279 | 35073 ft | 478 kts | 73° |
| 2026-05-04 13:42 | 15.96748 | 107.89280 | 35086 ft | 477 kts | 73° |
| 2026-05-04 13:42 | 15.98580 | 107.95901 | 35105 ft | 477 kts | 73° |
| 2026-05-04 13:43 | 16.00444 | 108.02530 | 35114 ft | 477 kts | 73° |
| 2026-05-04 13:43 | 16.02308 | 108.09152 | 35071 ft | 477 kts | 73° |
| 2026-05-04 13:44 | 16.04194 | 108.15745 | 35037 ft | 476 kts | 71° |
| 2026-05-04 13:44 | 16.06739 | 108.22107 | 35009 ft | 475 kts | 60° |
| 2026-05-04 13:45 | 16.10233 | 108.27954 | 34990 ft | 476 kts | 54° |
| 2026-05-04 13:45 | 16.14002 | 108.33612 | 34984 ft | 475 kts | 53° |
| 2026-05-04 13:46 | 16.17804 | 108.39283 | 34983 ft | 476 kts | 54° |
| 2026-05-04 13:46 | 16.21540 | 108.44946 | 34986 ft | 476 kts | 54° |
| 2026-05-04 13:47 | 16.25259 | 108.50657 | 34975 ft | 476 kts | 54° |
| 2026-05-04 13:47 | 16.28952 | 108.56367 | 34977 ft | 475 kts | 54° |
| 2026-05-04 13:48 | 16.32652 | 108.62105 | 34977 ft | 476 kts | 54° |
| 2026-05-04 13:48 | 16.36352 | 108.67844 | 34981 ft | 476 kts | 54° |
| 2026-05-04 13:49 | 16.40113 | 108.73530 | 34980 ft | 477 kts | 54° |
| 2026-05-04 13:49 | 16.43930 | 108.79219 | 34982 ft | 477 kts | 54° |
| 2026-05-04 13:50 | 16.47743 | 108.84905 | 34978 ft | 477 kts | 54° |
| 2026-05-04 13:50 | 16.51522 | 108.90559 | 34981 ft | 477 kts | 54° |
| 2026-05-04 13:51 | 16.55329 | 108.96271 | 34980 ft | 477 kts | 54° |
| 2026-05-04 13:51 | 16.59112 | 109.02003 | 34977 ft | 477 kts | 54° |
| 2026-05-04 13:52 | 16.64672 | 109.10580 | 34979 ft | 477 kts | 54° |
| 2026-05-04 13:53 | 16.68374 | 109.16305 | 34977 ft | 477 kts | 54° |
| 2026-05-04 13:53 | 16.72090 | 109.22050 | 34978 ft | 477 kts | 54° |
| 2026-05-04 13:54 | 16.77679 | 109.30685 | 34975 ft | 478 kts | 54° |
| 2026-05-04 13:55 | 16.83271 | 109.39333 | 34967 ft | 478 kts | 54° |
| 2026-05-04 13:55 | 16.88240 | 109.47010 | 34966 ft | 479 kts | 54° |
| 2026-05-04 13:57 | 16.98316 | 109.62591 | 34968 ft | 479 kts | 54° |
| 2026-05-04 13:58 | 17.05772 | 109.74149 | 34970 ft | 480 kts | 54° |
| 2026-05-04 13:58 | 17.11374 | 109.82844 | 34968 ft | 479 kts | 54° |
| 2026-05-04 13:59 | 17.15110 | 109.88650 | 34970 ft | 480 kts | 54° |
| 2026-05-04 14:00 | 17.20703 | 109.97351 | 34971 ft | 481 kts | 54° |
| 2026-05-04 14:00 | 17.26318 | 110.06095 | 34969 ft | 481 kts | 54° |
| 2026-05-04 14:01 | 17.30061 | 110.11931 | 34968 ft | 482 kts | 54° |
| 2026-05-04 14:02 | 17.35687 | 110.20713 | 34967 ft | 482 kts | 54° |
| 2026-05-04 14:02 | 17.39411 | 110.26532 | 34973 ft | 482 kts | 54° |
| 2026-05-04 14:03 | 17.43164 | 110.32392 | 34975 ft | 483 kts | 54° |
| 2026-05-04 14:03 | 17.46932 | 110.38207 | 34978 ft | 483 kts | 54° |
| 2026-05-04 14:04 | 17.52619 | 110.46948 | 34977 ft | 482 kts | 54° |
| 2026-05-04 14:04 | 17.56391 | 110.52755 | 34978 ft | 483 kts | 54° |
| 2026-05-04 14:05 | 17.62072 | 110.61523 | 34981 ft | 482 kts | 54° |
| 2026-05-04 14:06 | 17.65863 | 110.67384 | 34986 ft | 483 kts | 54° |
| 2026-05-04 14:06 | 17.69647 | 110.73243 | 34986 ft | 483 kts | 54° |
| 2026-05-04 14:07 | 17.73417 | 110.79084 | 34986 ft | 483 kts | 54° |
| 2026-05-04 14:07 | 17.77227 | 110.84994 | 34987 ft | 484 kts | 54° |
| 2026-05-04 14:08 | 17.81044 | 110.90916 | 34988 ft | 483 kts | 54° |
| 2026-05-04 14:08 | 17.84807 | 110.96759 | 34988 ft | 484 kts | 54° |
| 2026-05-04 14:09 | 17.90481 | 111.05581 | 34988 ft | 483 kts | 54° |
| 2026-05-04 14:10 | 17.96137 | 111.14391 | 34990 ft | 483 kts | 54° |
| 2026-05-04 14:10 | 17.99907 | 111.20265 | 34988 ft | 483 kts | 54° |
| 2026-05-04 14:11 | 18.03677 | 111.26146 | 34989 ft | 483 kts | 54° |
| 2026-05-04 14:11 | 18.09355 | 111.35014 | 34990 ft | 484 kts | 54° |
| 2026-05-04 14:12 | 18.13163 | 111.40970 | 34989 ft | 485 kts | 54° |
| 2026-05-04 14:13 | 18.18844 | 111.49866 | 34993 ft | 485 kts | 54° |
| 2026-05-04 14:13 | 18.22604 | 111.55759 | 34991 ft | 485 kts | 54° |
| 2026-05-04 14:14 | 18.26369 | 111.61666 | 34993 ft | 485 kts | 54° |
| 2026-05-04 14:14 | 18.32016 | 111.70534 | 34993 ft | 485 kts | 54° |
| 2026-05-04 14:15 | 18.39548 | 111.82383 | 34993 ft | 486 kts | 54° |
| 2026-05-04 14:16 | 18.45210 | 111.91304 | 34991 ft | 486 kts | 54° |
| 2026-05-04 14:17 | 18.50838 | 112.00185 | 34988 ft | 485 kts | 54° |
| 2026-05-04 14:18 | 18.56472 | 112.09084 | 34986 ft | 486 kts | 54° |
| 2026-05-04 14:19 | 18.63966 | 112.20943 | 34987 ft | 486 kts | 54° |
| 2026-05-04 14:19 | 18.67643 | 112.27013 | 34987 ft | 488 kts | 58° |
| 2026-05-04 14:20 | 18.70868 | 112.33315 | 34987 ft | 489 kts | 61° |
| 2026-05-04 14:20 | 18.73950 | 112.39700 | 34987 ft | 489 kts | 61° |
| 2026-05-04 14:21 | 18.78612 | 112.49322 | 34986 ft | 489 kts | 61° |
| 2026-05-04 14:21 | 18.81748 | 112.55708 | 34987 ft | 488 kts | 60° |
| 2026-05-04 14:22 | 18.84879 | 112.62047 | 34988 ft | 489 kts | 60° |
| 2026-05-04 14:22 | 18.88044 | 112.68438 | 34987 ft | 490 kts | 61° |
| 2026-05-04 14:23 | 18.92774 | 112.77997 | 34999 ft | 489 kts | 61° |
| 2026-05-04 14:24 | 18.95939 | 112.84401 | 35003 ft | 489 kts | 61° |
| 2026-05-04 14:24 | 18.99095 | 112.90792 | 35006 ft | 489 kts | 60° |
| 2026-05-04 14:25 | 19.02236 | 112.97162 | 35006 ft | 490 kts | 61° |
| 2026-05-04 14:25 | 19.06992 | 113.06819 | 35009 ft | 490 kts | 61° |
| 2026-05-04 14:26 | 19.10140 | 113.13220 | 35011 ft | 490 kts | 61° |
| 2026-05-04 14:26 | 19.13274 | 113.19601 | 35010 ft | 490 kts | 61° |
| 2026-05-04 14:27 | 19.16435 | 113.26041 | 35012 ft | 490 kts | 61° |
| 2026-05-04 14:27 | 19.19579 | 113.32455 | 35011 ft | 490 kts | 61° |
| 2026-05-04 14:28 | 19.22718 | 113.38866 | 35012 ft | 490 kts | 61° |
| 2026-05-04 14:28 | 19.25858 | 113.45284 | 35015 ft | 491 kts | 61° |
| 2026-05-04 14:29 | 19.32135 | 113.58139 | 35012 ft | 490 kts | 61° |
| 2026-05-04 14:30 | 19.35266 | 113.64561 | 35010 ft | 491 kts | 61° |
| 2026-05-04 14:31 | 19.39960 | 113.74203 | 35009 ft | 491 kts | 61° |
| 2026-05-04 14:32 | 19.46219 | 113.87081 | 35008 ft | 491 kts | 61° |
| 2026-05-04 14:32 | 19.49351 | 113.93536 | 35007 ft | 490 kts | 61° |
| 2026-05-04 14:33 | 19.52492 | 114.00017 | 35008 ft | 491 kts | 61° |
| 2026-05-04 14:33 | 19.55603 | 114.06445 | 35007 ft | 491 kts | 61° |
| 2026-05-04 14:34 | 19.58718 | 114.12889 | 35007 ft | 491 kts | 61° |
| 2026-05-04 14:34 | 19.61837 | 114.19347 | 35007 ft | 491 kts | 61° |
| 2026-05-04 14:35 | 19.64948 | 114.25797 | 35007 ft | 491 kts | 61° |
| 2026-05-04 14:35 | 19.68061 | 114.32259 | 35005 ft | 491 kts | 61° |
| 2026-05-04 14:36 | 19.71186 | 114.38751 | 35005 ft | 491 kts | 61° |
| 2026-05-04 14:36 | 19.74287 | 114.45204 | 35006 ft | 491 kts | 61° |
| 2026-05-04 14:37 | 19.77399 | 114.51689 | 35004 ft | 492 kts | 61° |
| 2026-05-04 14:37 | 19.80494 | 114.58144 | 35005 ft | 491 kts | 61° |
| 2026-05-04 14:38 | 19.83602 | 114.64636 | 35005 ft | 491 kts | 61° |
| 2026-05-04 14:38 | 19.86696 | 114.71105 | 35004 ft | 492 kts | 62° |
| 2026-05-04 14:39 | 19.89785 | 114.77574 | 35004 ft | 492 kts | 62° |
| 2026-05-04 14:39 | 19.92873 | 114.84047 | 35006 ft | 490 kts | 61° |
| 2026-05-04 14:40 | 19.97498 | 114.93752 | 35009 ft | 491 kts | 62° |
| 2026-05-04 14:40 | 20.00587 | 115.00245 | 35006 ft | 491 kts | 62° |
| 2026-05-04 14:41 | 20.03684 | 115.06762 | 35013 ft | 491 kts | 62° |
| 2026-05-04 14:42 | 20.09854 | 115.19769 | 35010 ft | 492 kts | 62° |
| 2026-05-04 14:42 | 20.12924 | 115.26253 | 35011 ft | 492 kts | 62° |
| 2026-05-04 14:43 | 20.16004 | 115.32764 | 35011 ft | 492 kts | 62° |
| 2026-05-04 14:43 | 20.19100 | 115.39317 | 35012 ft | 493 kts | 62° |
| 2026-05-04 14:44 | 20.22193 | 115.45845 | 35011 ft | 492 kts | 60° |
| 2026-05-04 14:44 | 20.25680 | 115.52083 | 35014 ft | 490 kts | 51° |
| 2026-05-04 14:45 | 20.30107 | 115.57630 | 35016 ft | 488 kts | 44° |
| 2026-05-04 14:45 | 20.34830 | 115.62807 | 35013 ft | 487 kts | 42° |
| 2026-05-04 14:46 | 20.39623 | 115.67976 | 35017 ft | 488 kts | 43° |
| 2026-05-04 14:46 | 20.44413 | 115.73226 | 35020 ft | 489 kts | 43° |
| 2026-05-04 14:47 | 20.49125 | 115.78472 | 35019 ft | 489 kts | 43° |
| 2026-05-04 14:47 | 20.53824 | 115.83746 | 35016 ft | 490 kts | 44° |
| 2026-05-04 14:48 | 20.58550 | 115.89069 | 35023 ft | 491 kts | 44° |
| 2026-05-04 14:48 | 20.63273 | 115.94399 | 35021 ft | 491 kts | 43° |
| 2026-05-04 14:49 | 20.67977 | 115.99712 | 35031 ft | 491 kts | 43° |
| 2026-05-04 14:49 | 20.72712 | 116.05062 | 35036 ft | 492 kts | 43° |
| 2026-05-04 14:50 | 20.77439 | 116.10409 | 35036 ft | 493 kts | 43° |
| 2026-05-04 14:50 | 20.82144 | 116.15733 | 35039 ft | 494 kts | 43° |
| 2026-05-04 14:51 | 20.86894 | 116.21117 | 35038 ft | 494 kts | 43° |
| 2026-05-04 14:51 | 20.91613 | 116.26472 | 35043 ft | 493 kts | 43° |
| 2026-05-04 14:52 | 20.96333 | 116.31831 | 35036 ft | 494 kts | 43° |
| 2026-05-04 14:52 | 21.01071 | 116.37216 | 35040 ft | 495 kts | 43° |
| 2026-05-04 14:53 | 21.05794 | 116.42589 | 35041 ft | 495 kts | 43° |
| 2026-05-04 14:53 | 21.10550 | 116.48005 | 35043 ft | 494 kts | 43° |
| 2026-05-04 14:54 | 21.15289 | 116.53406 | 35042 ft | 497 kts | 43° |
| 2026-05-04 14:54 | 21.20066 | 116.58857 | 35043 ft | 498 kts | 43° |
| 2026-05-04 14:55 | 21.24796 | 116.64263 | 35045 ft | 496 kts | 43° |
| 2026-05-04 14:55 | 21.29530 | 116.69677 | 35044 ft | 497 kts | 43° |
| 2026-05-04 14:56 | 21.34265 | 116.75098 | 35041 ft | 496 kts | 43° |
| 2026-05-04 14:56 | 21.39009 | 116.80532 | 35045 ft | 497 kts | 44° |
| 2026-05-04 14:57 | 21.43730 | 116.85946 | 35044 ft | 497 kts | 44° |
| 2026-05-04 14:57 | 21.48483 | 116.91402 | 35054 ft | 498 kts | 44° |
| 2026-05-04 14:58 | 21.53219 | 116.96844 | 35054 ft | 499 kts | 44° |
| 2026-05-04 14:58 | 21.57940 | 117.02276 | 35048 ft | 499 kts | 44° |
| 2026-05-04 14:59 | 21.62716 | 117.07775 | 35052 ft | 499 kts | 44° |
| 2026-05-04 15:00 | 21.69825 | 117.15972 | 35060 ft | 499 kts | 43° |
| 2026-05-04 15:00 | 21.74598 | 117.21484 | 35055 ft | 499 kts | 43° |
| 2026-05-04 15:01 | 21.81710 | 117.29705 | 35057 ft | 500 kts | 43° |
| 2026-05-04 15:01 | 21.86481 | 117.35226 | 35060 ft | 502 kts | 43° |
| 2026-05-04 15:02 | 21.91247 | 117.40750 | 35061 ft | 502 kts | 43° |
| 2026-05-04 15:02 | 21.96000 | 117.46278 | 35062 ft | 502 kts | 44° |
| 2026-05-04 15:03 | 22.00364 | 117.52200 | 35068 ft | 508 kts | 52° |
| 2026-05-04 15:03 | 22.04267 | 117.58608 | 35069 ft | 509 kts | 55° |
| 2026-05-04 15:04 | 22.07947 | 117.65126 | 35070 ft | 509 kts | 57° |
| 2026-05-04 15:04 | 22.11605 | 117.71695 | 35073 ft | 510 kts | 57° |
| 2026-05-04 15:05 | 22.15274 | 117.78262 | 35076 ft | 510 kts | 56° |
| 2026-05-04 15:05 | 22.18956 | 117.84818 | 35071 ft | 509 kts | 56° |
| 2026-05-04 15:06 | 22.22640 | 117.91354 | 35061 ft | 510 kts | 56° |
| 2026-05-04 15:07 | 22.28190 | 118.01197 | 35053 ft | 509 kts | 56° |
| 2026-05-04 15:07 | 22.31959 | 118.07735 | 35054 ft | 509 kts | 55° |
| 2026-05-04 15:08 | 22.35758 | 118.14214 | 35054 ft | 508 kts | 55° |
| 2026-05-04 15:08 | 22.39552 | 118.20688 | 35056 ft | 510 kts | 55° |
| 2026-05-04 15:09 | 22.43309 | 118.27184 | 35056 ft | 509 kts | 55° |
| 2026-05-04 15:09 | 22.47000 | 118.33700 | 35058 ft | 510 kts | 56° |
| 2026-05-04 15:10 | 22.52560 | 118.43578 | 35057 ft | 510 kts | 56° |
| 2026-05-04 15:11 | 22.58127 | 118.53454 | 35058 ft | 511 kts | 55° |
| 2026-05-04 15:11 | 22.61868 | 118.60034 | 35062 ft | 510 kts | 55° |
| 2026-05-04 15:12 | 22.65605 | 118.66590 | 35063 ft | 510 kts | 56° |
| 2026-05-04 15:12 | 22.69343 | 118.73151 | 35063 ft | 512 kts | 56° |
| 2026-05-04 15:13 | 22.73101 | 118.79763 | 35064 ft | 511 kts | 56° |
| 2026-05-04 15:13 | 22.76837 | 118.86350 | 35063 ft | 511 kts | 56° |
| 2026-05-04 15:14 | 22.80549 | 118.92906 | 35065 ft | 511 kts | 56° |
| 2026-05-04 15:14 | 22.84275 | 118.99496 | 35064 ft | 512 kts | 56° |
| 2026-05-04 15:15 | 22.87977 | 119.06050 | 35063 ft | 511 kts | 56° |
| 2026-05-04 15:15 | 22.91724 | 119.12688 | 35059 ft | 511 kts | 56° |
| 2026-05-04 15:16 | 22.97320 | 119.22620 | 35063 ft | 513 kts | 56° |
| 2026-05-04 15:17 | 23.02882 | 119.32510 | 35060 ft | 512 kts | 56° |
| 2026-05-04 15:17 | 23.08469 | 119.42466 | 35058 ft | 512 kts | 56° |
| 2026-05-04 15:18 | 23.12190 | 119.49107 | 35054 ft | 512 kts | 56° |
| 2026-05-04 15:19 | 23.17776 | 119.59095 | 35048 ft | 513 kts | 56° |
| 2026-05-04 15:19 | 23.23368 | 119.69109 | 35049 ft | 514 kts | 56° |
| 2026-05-04 15:20 | 23.27072 | 119.75748 | 35045 ft | 514 kts | 56° |
| 2026-05-04 15:20 | 23.30805 | 119.82445 | 35040 ft | 513 kts | 56° |
| 2026-05-04 15:21 | 23.34572 | 119.89072 | 35040 ft | 513 kts | 53° |
| 2026-05-04 15:22 | 23.41453 | 119.97904 | 35034 ft | 507 kts | 40° |
| 2026-05-04 15:22 | 23.49146 | 120.05840 | 35027 ft | 506 kts | 38° |
| 2026-05-04 15:23 | 23.54338 | 120.11067 | 35030 ft | 508 kts | 38° |
| 2026-05-04 15:23 | 23.59538 | 120.16357 | 35034 ft | 508 kts | 38° |
| 2026-05-04 15:24 | 23.69818 | 120.26946 | 35041 ft | 507 kts | 39° |
| 2026-05-04 15:25 | 23.74936 | 120.32248 | 35047 ft | 509 kts | 39° |
| 2026-05-04 15:26 | 23.82626 | 120.40227 | 35050 ft | 509 kts | 38° |
| 2026-05-04 15:26 | 23.90408 | 120.48245 | 35054 ft | 508 kts | 36° |
| 2026-05-04 15:27 | 23.98778 | 120.55417 | 35062 ft | 505 kts | 30° |
| 2026-05-04 15:28 | 24.07357 | 120.62180 | 35060 ft | 503 kts | 30° |
| 2026-05-04 15:29 | 24.15967 | 120.69038 | 35063 ft | 506 kts | 31° |
| 2026-05-04 15:30 | 24.35932 | 120.85203 | 35113 ft | 507 kts | 31° |
| 2026-05-04 15:31 | 24.44472 | 120.92151 | 35146 ft | 506 kts | 31° |
| 2026-05-04 15:32 | 24.58725 | 121.03752 | 35159 ft | 506 kts | 30° |
| 2026-05-04 15:34 | 24.73030 | 121.15437 | 35110 ft | 509 kts | 30° |
| 2026-05-04 15:34 | 24.81600 | 121.22473 | 35097 ft | 507 kts | 30° |
| 2026-05-04 15:35 | 24.90175 | 121.29513 | 35104 ft | 509 kts | 30° |
| 2026-05-04 15:36 | 24.98672 | 121.36501 | 35103 ft | 508 kts | 30° |
| 2026-05-04 15:36 | 25.04409 | 121.41224 | 35100 ft | 508 kts | 30° |
| 2026-05-04 15:37 | 25.10102 | 121.45915 | 35106 ft | 510 kts | 30° |
| 2026-05-04 15:37 | 25.15762 | 121.50770 | 35107 ft | 515 kts | 34° |
| 2026-05-04 15:38 | 25.20950 | 121.56251 | 35111 ft | 518 kts | 41° |
| 2026-05-04 15:38 | 25.25823 | 121.62176 | 35119 ft | 521 kts | 44° |
| 2026-05-04 15:39 | 25.30584 | 121.68243 | 35119 ft | 523 kts | 45° |
| 2026-05-04 15:40 | 25.37723 | 121.77407 | 35125 ft | 524 kts | 44° |
| 2026-05-04 15:40 | 25.42506 | 121.83511 | 35125 ft | 523 kts | 44° |
| 2026-05-04 15:41 | 25.47298 | 121.89597 | 35129 ft | 525 kts | 44° |
| 2026-05-04 15:41 | 25.52112 | 121.95708 | 35130 ft | 525 kts | 44° |
| 2026-05-04 15:42 | 25.56922 | 122.01809 | 35131 ft | 524 kts | 44° |
| 2026-05-04 15:42 | 25.61908 | 122.07699 | 35133 ft | 520 kts | 37° |
| 2026-05-04 15:43 | 25.67525 | 122.12761 | 35133 ft | 514 kts | 29° |
| 2026-05-04 15:43 | 25.73397 | 122.17301 | 35132 ft | 512 kts | 27° |
| 2026-05-04 15:44 | 25.79319 | 122.21735 | 35133 ft | 511 kts | 27° |
| 2026-05-04 15:44 | 25.85224 | 122.26218 | 35131 ft | 515 kts | 27° |
| 2026-05-04 15:45 | 25.91086 | 122.30744 | 35134 ft | 513 kts | 28° |
| 2026-05-04 15:45 | 25.96988 | 122.35341 | 35133 ft | 516 kts | 28° |
| 2026-05-04 15:46 | 26.02868 | 122.39943 | 35130 ft | 516 kts | 28° |
| 2026-05-04 15:46 | 26.08785 | 122.44587 | 35135 ft | 516 kts | 28° |
| 2026-05-04 15:47 | 26.14656 | 122.49198 | 35134 ft | 516 kts | 28° |
| 2026-05-04 15:47 | 26.20525 | 122.53814 | 35135 ft | 515 kts | 28° |
| 2026-05-04 15:48 | 26.26427 | 122.58462 | 35135 ft | 518 kts | 28° |
| 2026-05-04 15:48 | 26.35262 | 122.65442 | 35139 ft | 517 kts | 28° |
| 2026-05-04 15:49 | 26.41157 | 122.70101 | 35137 ft | 519 kts | 28° |
| 2026-05-04 15:49 | 26.47085 | 122.74788 | 35135 ft | 521 kts | 28° |
| 2026-05-04 15:50 | 26.52986 | 122.79465 | 35133 ft | 520 kts | 28° |
| 2026-05-04 15:50 | 26.58890 | 122.84151 | 35136 ft | 520 kts | 28° |
| 2026-05-04 15:51 | 26.64839 | 122.88862 | 35132 ft | 521 kts | 28° |
| 2026-05-04 15:51 | 26.70757 | 122.93555 | 35132 ft | 521 kts | 28° |
| 2026-05-04 15:52 | 26.76713 | 122.98283 | 35134 ft | 520 kts | 28° |
| 2026-05-04 15:52 | 26.82633 | 123.02990 | 35137 ft | 522 kts | 28° |
| 2026-05-04 15:53 | 26.88546 | 123.07709 | 35128 ft | 525 kts | 28° |
| 2026-05-04 15:53 | 26.94535 | 123.12504 | 35131 ft | 522 kts | 28° |
| 2026-05-04 15:54 | 27.00487 | 123.17271 | 35135 ft | 525 kts | 28° |
| 2026-05-04 15:54 | 27.06465 | 123.22061 | 35131 ft | 525 kts | 28° |
| 2026-05-04 15:55 | 27.12415 | 123.26842 | 35132 ft | 524 kts | 28° |
| 2026-05-04 15:55 | 27.18339 | 123.31602 | 35132 ft | 527 kts | 28° |
| 2026-05-04 15:56 | 27.24312 | 123.36414 | 35132 ft | 524 kts | 28° |
| 2026-05-04 15:56 | 27.30293 | 123.41236 | 35132 ft | 526 kts | 28° |
| 2026-05-04 15:57 | 27.36247 | 123.46043 | 35133 ft | 530 kts | 28° |
| 2026-05-04 15:57 | 27.42281 | 123.50919 | 35131 ft | 530 kts | 28° |
| 2026-05-04 15:58 | 27.48268 | 123.55772 | 35132 ft | 527 kts | 28° |
| 2026-05-04 15:58 | 27.54237 | 123.60606 | 35132 ft | 532 kts | 28° |
| 2026-05-04 15:59 | 27.60278 | 123.65502 | 35133 ft | 532 kts | 29° |
| 2026-05-04 15:59 | 27.66260 | 123.70489 | 35134 ft | 533 kts | 31° |
| 2026-05-04 16:00 | 27.72117 | 123.75678 | 35134 ft | 534 kts | 32° |
| 2026-05-04 16:00 | 27.77963 | 123.80947 | 35134 ft | 538 kts | 32° |
| 2026-05-04 16:01 | 27.83796 | 123.86201 | 35133 ft | 534 kts | 32° |
| 2026-05-04 16:01 | 27.89651 | 123.91441 | 35136 ft | 538 kts | 32° |
| 2026-05-04 16:02 | 27.95598 | 123.96735 | 35130 ft | 541 kts | 32° |
| 2026-05-04 16:03 | 28.04464 | 124.04646 | 35129 ft | 539 kts | 32° |
| 2026-05-04 16:03 | 28.10352 | 124.09911 | 35129 ft | 538 kts | 32° |
| 2026-05-04 16:04 | 28.16278 | 124.15217 | 35127 ft | 540 kts | 31° |
| 2026-05-04 16:04 | 28.25105 | 124.23132 | 35127 ft | 540 kts | 32° |
| 2026-05-04 16:05 | 28.31048 | 124.28467 | 35135 ft | 542 kts | 32° |
| 2026-05-04 16:06 | 28.39903 | 124.36441 | 35131 ft | 539 kts | 32° |
| 2026-05-04 16:07 | 28.51750 | 124.47131 | 35135 ft | 539 kts | 32° |
| 2026-05-04 16:08 | 28.63632 | 124.57897 | 35142 ft | 540 kts | 31° |
| 2026-05-04 16:09 | 28.78784 | 124.70570 | 35141 ft | 529 kts | 18° |
| 2026-05-04 16:10 | 28.92376 | 124.76614 | 35151 ft | 514 kts | 8° |
| 2026-05-04 16:11 | 29.06014 | 124.81792 | 35146 ft | 517 kts | 8° |
| 2026-05-04 16:12 | 29.26540 | 124.89956 | 35590 ft | 518 kts | 9° |
| 2026-05-04 16:13 | 29.33335 | 124.92692 | 36297 ft | 514 kts | 8° |
| 2026-05-04 16:13 | 29.40088 | 124.95417 | 37010 ft | 508 kts | 8° |
| 2026-05-04 16:14 | 29.46806 | 124.98123 | 37154 ft | 508 kts | 8° |
| 2026-05-04 16:14 | 29.53515 | 125.00821 | 37152 ft | 509 kts | 8° |
| 2026-05-04 16:16 | 29.70385 | 125.07625 | 37152 ft | 511 kts | 8° |
| 2026-05-04 16:17 | 29.87219 | 125.14452 | 37152 ft | 513 kts | 8° |
| 2026-05-04 16:18 | 30.00742 | 125.19957 | 37151 ft | 509 kts | 7° |
| 2026-05-04 16:19 | 30.17581 | 125.26840 | 37153 ft | 511 kts | 8° |
| 2026-05-04 16:20 | 30.34487 | 125.33783 | 37148 ft | 514 kts | 8° |
| 2026-05-04 16:22 | 30.51252 | 125.40710 | 37121 ft | 506 kts | 8° |
| 2026-05-04 16:23 | 30.71235 | 125.48974 | 37140 ft | 505 kts | 8° |
| 2026-05-04 16:25 | 30.91172 | 125.57256 | 37142 ft | 505 kts | 8° |
| 2026-05-04 16:26 | 31.14408 | 125.66965 | 37146 ft | 503 kts | 8° |
| 2026-05-04 16:28 | 31.30926 | 125.73891 | 37142 ft | 505 kts | 9° |
| 2026-05-04 16:29 | 31.54105 | 125.83659 | 37143 ft | 505 kts | 9° |
| 2026-05-04 16:31 | 31.70604 | 125.90620 | 37149 ft | 501 kts | 9° |
| 2026-05-04 16:32 | 31.90302 | 125.98917 | 37153 ft | 502 kts | 10° |
| 2026-05-04 16:33 | 32.03509 | 126.04508 | 37153 ft | 501 kts | 10° |
| 2026-05-04 16:34 | 32.13387 | 126.08701 | 37145 ft | 500 kts | 10° |
| 2026-05-04 16:35 | 32.33061 | 126.17054 | 37138 ft | 498 kts | 10° |
| 2026-05-04 16:36 | 32.42810 | 126.21211 | 37137 ft | 497 kts | 10° |
| 2026-05-04 16:37 | 32.52665 | 126.25411 | 37135 ft | 500 kts | 10° |
| 2026-05-04 16:38 | 32.65684 | 126.31002 | 37124 ft | 496 kts | 11° |
| 2026-05-04 16:39 | 32.81931 | 126.37994 | 37122 ft | 495 kts | 11° |
| 2026-05-04 16:40 | 32.94942 | 126.43616 | 37126 ft | 494 kts | 11° |
| 2026-05-04 16:41 | 33.11133 | 126.50600 | 37114 ft | 493 kts | 11° |
| 2026-05-04 16:43 | 33.27319 | 126.57568 | 37116 ft | 492 kts | 11° |
| 2026-05-04 16:43 | 33.37012 | 126.61759 | 37121 ft | 491 kts | 11° |
| 2026-05-04 16:45 | 33.56402 | 126.69763 | 37118 ft | 480 kts | 4° |
| 2026-05-04 16:46 | 33.66237 | 126.71269 | 37119 ft | 469 kts | 355° |
| 2026-05-04 16:46 | 33.72796 | 126.71827 | 37118 ft | 468 kts | 355° |
| 2026-05-04 16:47 | 33.85846 | 126.73032 | 37112 ft | 470 kts | 356° |
| 2026-05-04 16:48 | 33.98900 | 126.74377 | 37119 ft | 468 kts | 356° |
| 2026-05-04 16:49 | 34.11939 | 126.75742 | 37114 ft | 466 kts | 356° |
| 2026-05-04 16:50 | 34.24965 | 126.77106 | 37114 ft | 467 kts | 356° |
| 2026-05-04 16:51 | 34.34728 | 126.78142 | 37118 ft | 468 kts | 357° |
| 2026-05-04 16:52 | 34.47712 | 126.79526 | 37118 ft | 465 kts | 357° |
| 2026-05-04 16:53 | 34.57464 | 126.80566 | 37122 ft | 464 kts | 357° |
| 2026-05-04 16:54 | 34.70390 | 126.81948 | 37112 ft | 463 kts | 357° |
| 2026-05-04 16:55 | 34.89793 | 126.84038 | 37119 ft | 462 kts | 358° |
| 2026-05-04 16:56 | 35.05854 | 126.85770 | 37124 ft | 462 kts | 358° |
| 2026-05-04 16:57 | 35.15517 | 126.86816 | 37115 ft | 463 kts | 358° |
| 2026-05-04 16:58 | 35.28375 | 126.88213 | 37111 ft | 460 kts | 358° |
| 2026-05-04 17:00 | 35.47549 | 126.90306 | 37113 ft | 457 kts | 358° |
| 2026-05-04 17:01 | 35.63495 | 126.92047 | 37116 ft | 458 kts | 358° |
| 2026-05-04 17:02 | 35.76276 | 126.93452 | 37120 ft | 456 kts | 358° |
| 2026-05-04 17:02 | 35.82615 | 126.94146 | 36683 ft | 459 kts | 358° |
| 2026-05-04 17:03 | 35.85856 | 126.94502 | 36125 ft | 458 kts | 359° |
| 2026-05-04 17:03 | 35.89037 | 126.94853 | 35538 ft | 459 kts | 359° |
| 2026-05-04 17:03 | 35.95456 | 126.95556 | 34152 ft | 466 kts | 0° |
| 2026-05-04 17:04 | 36.01976 | 126.96274 | 32742 ft | 466 kts | 0° |
| 2026-05-04 17:04 | 36.08431 | 126.96996 | 31594 ft | 459 kts | 1° |
| 2026-05-04 17:05 | 36.14745 | 126.97704 | 30496 ft | 452 kts | 1° |
| 2026-05-04 17:05 | 36.21002 | 126.98402 | 29301 ft | 445 kts | 1° |
| 2026-05-04 17:06 | 36.27094 | 126.99084 | 28410 ft | 431 kts | 2° |
| 2026-05-04 17:06 | 36.30096 | 126.99419 | 27911 ft | 426 kts | 2° |
| 2026-05-04 17:07 | 36.35944 | 127.00070 | 26903 ft | 417 kts | 3° |
| 2026-05-04 17:07 | 36.37832 | 127.00272 | 26572 ft | 414 kts | 2° |
| 2026-05-04 17:07 | 36.41647 | 127.00427 | 25888 ft | 407 kts | 358° |
| 2026-05-04 17:07 | 36.44465 | 127.00359 | 25387 ft | 403 kts | 357° |
| 2026-05-04 17:08 | 36.47260 | 127.00229 | 24900 ft | 398 kts | 356° |
| 2026-05-04 17:08 | 36.52731 | 126.99938 | 23929 ft | 390 kts | 357° |
| 2026-05-04 17:08 | 36.55442 | 126.99807 | 23437 ft | 387 kts | 357° |
| 2026-05-04 17:09 | 36.58142 | 126.99686 | 22951 ft | 383 kts | 357° |
| 2026-05-04 17:09 | 36.60780 | 126.99577 | 22481 ft | 379 kts | 358° |
| 2026-05-04 17:09 | 36.63416 | 126.99474 | 22003 ft | 375 kts | 358° |
| 2026-05-04 17:10 | 36.68601 | 126.99281 | 21058 ft | 368 kts | 357° |
| 2026-05-04 17:10 | 36.75847 | 126.96886 | 19641 ft | 357 kts | 329° |
| 2026-05-04 17:11 | 36.77906 | 126.95168 | 19165 ft | 354 kts | 324° |
| 2026-05-04 17:11 | 36.79853 | 126.93357 | 18682 ft | 351 kts | 322° |
| 2026-05-04 17:11 | 36.83695 | 126.89609 | 17727 ft | 346 kts | 322° |
| 2026-05-04 17:12 | 36.85579 | 126.87769 | 17265 ft | 344 kts | 322° |
| 2026-05-04 17:12 | 36.89356 | 126.84110 | 16325 ft | 341 kts | 322° |
| 2026-05-04 17:13 | 36.94952 | 126.78722 | 14938 ft | 335 kts | 322° |
| 2026-05-04 17:14 | 37.00424 | 126.73449 | 13534 ft | 329 kts | 322° |
| 2026-05-04 17:14 | 37.02253 | 126.71684 | 13080 ft | 328 kts | 321° |
| 2026-05-04 17:14 | 37.05836 | 126.68220 | 12175 ft | 324 kts | 321° |
| 2026-05-04 17:15 | 37.07612 | 126.66502 | 11723 ft | 322 kts | 322° |
| 2026-05-04 17:15 | 37.11138 | 126.63087 | 10834 ft | 317 kts | 322° |
| 2026-05-04 17:16 | 37.14545 | 126.59785 | 10423 ft | 297 kts | 322° |
| 2026-05-04 17:16 | 37.19244 | 126.55222 | 9644 ft | 280 kts | 322° |
| 2026-05-04 17:17 | 37.20787 | 126.53720 | 9288 ft | 278 kts | 322° |
| 2026-05-04 17:17 | 37.25332 | 126.49300 | 8235 ft | 272 kts | 322° |
| 2026-05-04 17:18 | 37.26826 | 126.47844 | 7896 ft | 269 kts | 322° |
| 2026-05-04 17:18 | 37.29764 | 126.44981 | 7223 ft | 265 kts | 322° |
| 2026-05-04 17:19 | 37.32669 | 126.42147 | 6550 ft | 262 kts | 322° |
| 2026-05-04 17:19 | 37.35525 | 126.39359 | 5884 ft | 257 kts | 322° |
| 2026-05-04 17:20 | 37.38190 | 126.36754 | 5648 ft | 227 kts | 322° |
| 2026-05-04 17:20 | 37.40661 | 126.34341 | 5483 ft | 222 kts | 322° |
| 2026-05-04 17:20 | 37.41924 | 126.33180 | 5211 ft | 225 kts | 323° |
| 2026-05-04 17:21 | 37.44473 | 126.30934 | 4667 ft | 220 kts | 323° |
| 2026-05-04 17:21 | 37.46960 | 126.28723 | 4145 ft | 218 kts | 322° |
| 2026-05-04 17:22 | 37.48194 | 126.27621 | 3893 ft | 216 kts | 322° |
| 2026-05-04 17:22 | 37.49438 | 126.26510 | 3643 ft | 216 kts | 322° |
| 2026-05-04 17:23 | 37.53089 | 126.23248 | 2891 ft | 211 kts | 322° |
| 2026-05-04 17:23 | 37.54285 | 126.22180 | 2650 ft | 208 kts | 322° |
| 2026-05-04 17:23 | 37.56972 | 126.21272 | 2223 ft | 208 kts | 17° |
| 2026-05-04 17:24 | 37.58162 | 126.22178 | 2216 ft | 193 kts | 41° |
| 2026-05-04 17:24 | 37.60522 | 126.26173 | 2221 ft | 189 kts | 58° |
| 2026-05-04 17:25 | 37.60987 | 126.27711 | 2219 ft | 189 kts | 89° |
| 2026-05-04 17:25 | 37.59725 | 126.30365 | 2226 ft | 182 kts | 147° |
| 2026-05-04 17:26 | 37.57692 | 126.32262 | 2225 ft | 181 kts | 147° |
| 2026-05-04 17:26 | 37.54668 | 126.34962 | 1845 ft | 171 kts | 148° |
| 2026-05-04 17:27 | 37.52820 | 126.36612 | 1396 ft | 157 kts | 147° |
| 2026-05-04 17:27 | 37.51044 | 126.38195 | 980 ft | 155 kts | 147° |
| 2026-05-04 17:28 | 37.49313 | 126.39738 | 557 ft | 150 kts | 146° |
| 2026-05-04 17:29 | 37.46791 | 126.41984 | 28 ft | 138 kts | 145° |
| 2026-05-04 17:29 | 37.45732 | 126.42931 | 28 ft | 24 kts | 140° |
| 2026-05-04 17:30 | 37.45663 | 126.43255 | 28 ft | 12 kts | 328° |
| 2026-05-04 17:31 | 37.45804 | 126.43172 | 28 ft | 11 kts | 47° |
| 2026-05-04 17:31 | 37.45932 | 126.43399 | 28 ft | 11 kts | 54° |
| 2026-05-04 17:32 | 37.46038 | 126.43587 | 28 ft | 13 kts | 54° |
| 2026-05-04 17:33 | 37.46240 | 126.43645 | 28 ft | 12 kts | 324° |
| 2026-05-04 17:33 | 37.46307 | 126.43585 | 28 ft | 11 kts | 324° |
| 2026-05-04 17:34 | 37.46374 | 126.43457 | 28 ft | 4 kts | 238° |
| 2026-05-04 17:34 | 37.46359 | 126.43426 | 28 ft | 2 kts | 238° |
| 2026-05-04 17:35 | 37.46353 | 126.43414 | 28 ft | 0 kts | 238° |